map of RCA home
RCA - Airport
Location
City:  Rapid City, South Dakota, United States
Name:Ellsworth AFB
ICAO:KRCA
IATA:RCA
FAA LID:RCA

Details
Type:Airport (Airfield)
Use:Military
Latitude:4408'42"N (44.145094)
Longitude:10306'13"W (-103.103566)
Datum:WGS 1984
Elevation:3276 ft (999 m)
Variation:7.44E (WMM2015 magnetic declination)
-0.10 annual change
Runways:1
Longest:13497 × 300 ft (4114 × 91.5 m), paved

Time
Time Zone:UTC-6 (DST-5)
Local Time:

Weather
METAR:KRCA 231556Z AUTO 00000KT 10SM CLR M11/M17 A3017 RMK AO2 SLP290 T11081171 $
TAF:KRCA 230300Z 2303/2409 25006KT 9999 FEW060 SCT100 QNH2999INS TXM06/2320Z TNM19/2309Z

Related Locations
Nearby:
Farthest:RRG: 10579 mi / 17026 km
Plaine Corail [Sir Gatan Duval Airport (Plaine Corail Airport)], Rodrigues Island, MU

Find:

   beyond  
but within

Other Information
Maps:
NOTAMs:
Links:
Sources:

  
flag of United States
flag of South Dakota
  

Airport Diagram

Airport diagram for RCA

Airport diagram PDF

Sectional Chart

Flight Planning
at skyvector.com

Satellite Image

Google Maps Satellite view

 

Copyright © 2004-2018 Karl L. Swartz. All rights reserved.
The Great Circle Mapper name and logo are trademarks of the Great Circle Mapper.
All other trademarks mentioned herein belong to their respective owners.
Please see credits for attibutions and further copyright information.

  Follow gcmap on Facebook Follow gcmap on Twitter Follow gcmap on Google+ GCmap on LinkedIn

hCard Microformat

Geo Microformat